createdAt,value
2018-08-03T00:00:18.257Z,3.53
2018-08-03T00:02:47.658Z,3.20
2018-08-03T00:05:17.029Z,3.00
2018-08-03T00:07:47.168Z,3.20
2018-08-03T00:10:16.530Z,2.93
2018-08-03T00:12:45.976Z,3.60
2018-08-03T00:15:16.529Z,3.63
2018-08-03T00:17:45.921Z,3.10
2018-08-03T00:20:15.270Z,3.13
2018-08-03T00:22:44.749Z,3.30
2018-08-03T00:25:14.108Z,3.27
2018-08-03T00:27:43.557Z,3.20
2018-08-03T00:30:12.918Z,3.30
2018-08-03T00:32:42.337Z,3.47
2018-08-03T00:35:11.737Z,3.80
2018-08-03T00:37:41.134Z,3.53
2018-08-03T00:40:10.215Z,3.90
2018-08-03T00:42:39.613Z,3.43
2018-08-03T00:45:09.113Z,3.50
2018-08-03T00:47:38.569Z,4.00
2018-08-03T00:50:08.061Z,3.90
2018-08-03T00:52:37.418Z,4.00
2018-08-03T00:55:07.147Z,3.57
2018-08-03T00:57:36.602Z,3.60
2018-08-03T01:00:06.506Z,3.60
2018-08-03T01:02:35.885Z,4.10
2018-08-03T01:05:05.449Z,3.50
2018-08-03T01:07:34.781Z,4.53
2018-08-03T01:10:04.197Z,3.40
2018-08-03T01:12:33.533Z,3.63
2018-08-03T01:15:02.983Z,3.90
2018-08-03T01:17:32.301Z,3.00
2018-08-03T01:20:01.671Z,3.93
2018-08-03T01:22:31.007Z,3.60
2018-08-03T01:25:00.548Z,4.10
2018-08-03T01:27:29.929Z,3.87
2018-08-03T01:29:59.412Z,4.10
2018-08-03T01:32:28.718Z,3.47
2018-08-03T01:34:58.369Z,3.50
2018-08-03T01:37:27.766Z,3.77
2018-08-03T01:39:57.183Z,4.10
2018-08-03T01:42:26.610Z,3.30
2018-08-03T01:44:55.997Z,4.10
2018-08-03T01:47:25.350Z,3.70
2018-08-03T01:49:54.802Z,4.23
2018-08-03T01:52:24.154Z,4.23
2018-08-03T01:54:53.581Z,4.10
2018-08-03T01:57:22.998Z,4.57
2018-08-03T01:59:52.437Z,3.77
2018-08-03T02:02:22.051Z,3.70
2018-08-03T02:04:51.522Z,3.43
2018-08-03T02:07:20.937Z,3.27
2018-08-03T02:09:50.317Z,4.13
2018-08-03T02:12:19.773Z,3.43
2018-08-03T02:14:49.221Z,3.80
2018-08-03T02:17:18.690Z,4.07
2018-08-03T02:19:48.157Z,4.37
2018-08-03T02:22:18.162Z,3.93
2018-08-03T02:24:47.575Z,4.57
2018-08-03T02:27:17.608Z,4.07
2018-08-03T02:29:46.959Z,4.30
2018-08-03T02:32:16.403Z,4.03
2018-08-03T02:34:45.697Z,3.60
2018-08-03T02:37:15.070Z,4.00
2018-08-03T02:39:44.482Z,4.10
2018-08-03T02:42:13.620Z,4.90
2018-08-03T02:44:43.059Z,4.40
2018-08-03T02:47:12.548Z,3.50
2018-08-03T02:49:42.557Z,3.43
2018-08-03T02:52:12.065Z,4.80
2018-08-03T02:54:41.945Z,4.40
2018-08-03T02:57:11.385Z,4.20
2018-08-03T02:59:40.877Z,4.17
2018-08-03T03:02:10.237Z,4.70
2018-08-03T03:04:39.650Z,4.60
2018-08-03T03:07:09.078Z,5.17
2018-08-03T03:09:39.400Z,4.83
2018-08-03T03:12:10.177Z,4.77
2018-08-03T03:14:39.540Z,4.70
2018-08-03T03:17:09.054Z,4.50
2018-08-03T03:19:38.488Z,4.23
2018-08-03T03:22:07.857Z,5.13
2018-08-03T03:24:37.399Z,5.27
2018-08-03T03:27:06.873Z,4.77
2018-08-03T03:29:36.273Z,4.80
2018-08-03T03:32:06.645Z,4.23
2018-08-03T03:34:35.994Z,4.30
2018-08-03T03:37:05.468Z,4.57
2018-08-03T03:39:34.838Z,4.17
2018-08-03T03:42:04.197Z,4.70
2018-08-03T03:44:33.627Z,4.97
2018-08-03T03:47:03.762Z,4.87
2018-08-03T03:49:33.113Z,5.10
2018-08-03T03:52:02.510Z,5.07
2018-08-03T03:54:32.078Z,4.97
2018-08-03T03:57:01.542Z,4.57
2018-08-03T03:59:30.938Z,4.20
2018-08-03T04:02:00.447Z,5.17
2018-08-03T04:04:29.845Z,4.30
2018-08-03T04:06:59.380Z,4.47
2018-08-03T04:09:28.766Z,4.73
2018-08-03T04:11:58.194Z,4.70
2018-08-03T04:14:27.520Z,4.60
2018-08-03T04:16:56.709Z,4.50
2018-08-03T04:19:26.005Z,5.47
2018-08-03T04:21:55.454Z,5.73
2018-08-03T04:24:24.858Z,5.50
2018-08-03T04:26:54.322Z,6.20
2018-08-03T04:29:23.789Z,5.30
2018-08-03T04:31:53.162Z,4.43
2018-08-03T04:34:22.505Z,4.70
2018-08-03T04:36:51.886Z,5.70
2018-08-03T04:39:21.279Z,5.00
2018-08-03T04:41:50.737Z,4.80
2018-08-03T04:44:20.257Z,5.60
2018-08-03T04:46:49.686Z,4.80
2018-08-03T04:49:19.124Z,4.97
2018-08-03T04:51:48.645Z,5.60
2018-08-03T04:54:17.997Z,5.60
2018-08-03T04:56:47.485Z,5.70
2018-08-03T04:59:16.941Z,4.70
2018-08-03T05:01:46.566Z,5.23
2018-08-03T05:04:15.958Z,5.80
2018-08-03T05:06:45.357Z,4.40
2018-08-03T05:09:14.845Z,5.57
2018-08-03T05:11:44.173Z,5.80
2018-08-03T05:14:13.619Z,5.37
2018-08-03T05:16:42.930Z,4.83
2018-08-03T05:19:12.336Z,5.00
2018-08-03T05:21:41.621Z,5.27
2018-08-03T05:24:11.052Z,6.13
2018-08-03T05:26:40.377Z,5.03
2018-08-03T05:29:09.778Z,4.50
2018-08-03T05:31:40.234Z,5.00
2018-08-03T05:34:09.635Z,4.73
2018-08-03T05:36:39.057Z,4.80
2018-08-03T05:39:11.138Z,4.47
2018-08-03T05:41:40.830Z,5.30
2018-08-03T05:44:10.341Z,4.20
2018-08-03T05:46:39.866Z,5.10
2018-08-03T05:49:09.183Z,4.53
2018-08-03T05:51:38.603Z,4.97
2018-08-03T05:54:08.270Z,4.10
2018-08-03T05:56:37.677Z,4.73
2018-08-03T05:59:07.298Z,4.37
2018-08-03T06:01:36.477Z,4.87
2018-08-03T06:04:05.896Z,4.50
2018-08-03T06:06:35.327Z,4.60
2018-08-03T06:09:07.429Z,4.03
2018-08-03T06:11:37.120Z,4.23
2018-08-03T06:14:07.194Z,3.63
2018-08-03T06:16:36.734Z,3.47
2018-08-03T06:19:06.427Z,4.17
2018-08-03T06:21:35.913Z,4.10
2018-08-03T06:24:05.426Z,4.20
2018-08-03T06:26:34.785Z,3.90
2018-08-03T06:29:04.434Z,3.93
2018-08-03T06:31:33.811Z,3.70
2018-08-03T06:34:03.235Z,4.17
2018-08-03T06:36:32.650Z,3.63
2018-08-03T06:39:02.013Z,3.40
2018-08-03T06:41:31.462Z,3.33
2018-08-03T06:44:00.822Z,3.50
2018-08-03T06:46:30.501Z,3.57
2018-08-03T06:48:59.933Z,3.20
2018-08-03T06:51:29.296Z,3.30
2018-08-03T06:53:58.797Z,3.33
2018-08-03T06:56:30.803Z,3.30
2018-08-03T06:59:00.499Z,2.93
2018-08-03T07:01:34.298Z,3.60
2018-08-03T07:04:04.788Z,3.30
2018-08-03T07:06:36.340Z,3.00
2018-08-03T07:09:12.861Z,3.33
2018-08-03T07:11:43.722Z,3.20
2018-08-03T07:14:14.222Z,3.20
2018-08-03T07:16:44.478Z,3.60
2018-08-03T07:19:15.576Z,3.43
2018-08-03T07:21:44.783Z,3.10
2018-08-03T07:24:15.427Z,3.13
2018-08-03T07:26:45.450Z,3.57
2018-08-03T07:29:15.122Z,3.03
2018-08-03T07:31:45.104Z,3.30
2018-08-03T07:34:14.631Z,3.80
2018-08-03T07:36:44.628Z,2.60
2018-08-03T07:39:13.988Z,3.33
2018-08-03T07:41:43.402Z,2.83
2018-08-03T07:44:12.901Z,3.80
2018-08-03T07:46:42.606Z,4.10
2018-08-03T07:49:12.716Z,2.73
2018-08-03T07:51:42.161Z,3.23
2018-08-03T07:54:11.618Z,2.97
2018-08-03T07:56:41.072Z,3.40
2018-08-03T07:59:10.713Z,3.17
2018-08-03T08:01:40.118Z,3.47
2018-08-03T08:04:10.175Z,3.00
2018-08-03T08:06:39.602Z,3.07
2018-08-03T08:09:11.223Z,3.27
2018-08-03T08:11:41.187Z,2.70
2018-08-03T08:14:10.590Z,2.70
2018-08-03T08:16:40.213Z,2.87
2018-08-03T08:19:10.922Z,2.90
2018-08-03T08:21:40.722Z,3.30
2018-08-03T08:24:10.286Z,3.27
2018-08-03T08:26:41.028Z,3.40
2018-08-03T08:29:10.428Z,3.03
2018-08-03T08:31:40.577Z,3.10
2018-08-03T08:34:09.883Z,2.90
2018-08-03T08:36:39.228Z,2.57
2018-08-03T08:39:12.243Z,3.10
2018-08-03T08:41:42.689Z,3.70
2018-08-03T08:44:13.161Z,4.13
2018-08-03T08:46:43.038Z,3.47
2018-08-03T08:49:12.461Z,3.00
2018-08-03T08:51:41.817Z,2.87
2018-08-03T08:54:11.217Z,3.27
2018-08-03T08:56:40.606Z,3.57
2018-08-03T08:59:10.269Z,3.27
2018-08-03T09:01:40.291Z,3.13
2018-08-03T09:04:09.780Z,3.30
2018-08-03T09:06:39.163Z,3.30
2018-08-03T09:09:10.665Z,3.07
2018-08-03T09:11:40.353Z,3.20
2018-08-03T09:14:09.762Z,3.30
2018-08-03T09:16:39.269Z,3.23
2018-08-03T09:19:08.645Z,3.10
2018-08-03T09:21:38.105Z,3.73
2018-08-03T09:24:07.470Z,3.20
2018-08-03T09:26:37.169Z,3.60
2018-08-03T09:29:06.693Z,3.20
2018-08-03T09:31:36.206Z,2.73
2018-08-03T09:34:05.598Z,3.20
2018-08-03T09:36:35.166Z,3.27
2018-08-03T09:39:06.525Z,3.70
2018-08-03T09:41:35.954Z,4.30
2018-08-03T09:44:05.771Z,3.20
2018-08-03T09:46:35.318Z,3.17
2018-08-03T09:49:04.712Z,4.47
2018-08-03T09:51:34.182Z,3.30
2018-08-03T09:54:03.689Z,3.57
2018-08-03T09:56:33.181Z,3.47
2018-08-03T09:59:02.599Z,3.80
2018-08-03T10:01:31.948Z,3.70
2018-08-03T10:04:01.539Z,3.43
2018-08-03T10:06:30.953Z,3.20
2018-08-03T10:09:00.412Z,3.00
2018-08-03T10:11:29.837Z,3.10
2018-08-03T10:13:59.200Z,3.23
2018-08-03T10:16:28.769Z,3.50
2018-08-03T10:18:58.765Z,3.30
2018-08-03T10:21:28.147Z,4.20
2018-08-03T10:23:57.565Z,3.60
2018-08-03T10:26:27.063Z,3.40
2018-08-03T10:28:56.493Z,2.50
2018-08-03T10:31:25.660Z,3.10
2018-08-03T10:33:55.520Z,2.80
2018-08-03T10:36:25.046Z,2.87
2018-08-03T10:38:54.422Z,3.47
2018-08-03T10:41:24.209Z,3.13
2018-08-03T10:43:53.579Z,2.90
2018-08-03T10:46:23.922Z,2.80
2018-08-03T10:48:53.835Z,3.33
2018-08-03T10:51:23.266Z,3.27
2018-08-03T10:53:52.641Z,3.03
2018-08-03T10:56:22.053Z,3.60
2018-08-03T10:58:51.581Z,2.70
2018-08-03T11:01:21.070Z,3.30
2018-08-03T11:03:50.499Z,2.83
2018-08-03T11:06:19.999Z,3.47
2018-08-03T11:08:49.386Z,3.10
2018-08-03T11:11:18.993Z,3.43
2018-08-03T11:13:48.562Z,3.30
2018-08-03T11:16:17.929Z,2.87
2018-08-03T11:18:48.321Z,2.93
2018-08-03T11:21:18.282Z,3.80
2018-08-03T11:23:47.802Z,3.80
2018-08-03T11:26:17.189Z,3.30
2018-08-03T11:28:46.369Z,2.80
2018-08-03T11:31:15.770Z,3.80
2018-08-03T11:33:45.159Z,3.60
2018-08-03T11:36:14.580Z,3.23
2018-08-03T11:38:44.191Z,3.50
2018-08-03T11:41:13.590Z,3.17
2018-08-03T11:43:43.014Z,3.00
2018-08-03T11:46:12.509Z,3.30
2018-08-03T11:48:41.902Z,3.50
2018-08-03T11:51:11.529Z,3.73
2018-08-03T11:53:40.703Z,3.63
2018-08-03T11:56:10.069Z,2.90
2018-08-03T11:58:39.477Z,3.40
2018-08-03T12:01:08.906Z,3.40
2018-08-03T12:03:38.321Z,3.40
2018-08-03T12:06:07.726Z,3.03
2018-08-03T12:08:37.121Z,3.40
2018-08-03T12:11:06.533Z,3.10
2018-08-03T12:13:35.953Z,3.40
2018-08-03T12:16:05.358Z,3.17
2018-08-03T12:18:34.725Z,3.30
2018-08-03T12:21:04.102Z,3.07
2018-08-03T12:23:33.544Z,3.30
2018-08-03T12:26:02.901Z,2.80
2018-08-03T12:28:32.253Z,3.97
2018-08-03T12:31:01.672Z,2.77
2018-08-03T12:33:31.026Z,3.73
2018-08-03T12:36:00.539Z,3.40
2018-08-03T12:38:29.897Z,3.03
2018-08-03T12:40:59.317Z,3.17
2018-08-03T12:43:28.794Z,3.10
2018-08-03T12:45:58.433Z,2.50
2018-08-03T12:48:27.881Z,2.90
2018-08-03T12:50:57.254Z,2.93
2018-08-03T12:53:26.622Z,4.27
2018-08-03T12:55:56.437Z,3.10
2018-08-03T12:58:25.806Z,3.00
2018-08-03T13:00:55.265Z,2.70
2018-08-03T13:03:24.645Z,3.30
2018-08-03T13:05:54.024Z,3.27
2018-08-03T13:08:23.586Z,3.37
2018-08-03T13:10:53.105Z,3.80
2018-08-03T13:13:23.495Z,2.97
2018-08-03T13:15:52.873Z,3.23
2018-08-03T13:18:22.351Z,3.08
2018-08-03T13:20:52.276Z,2.65
2018-08-03T13:23:22.573Z,2.10
2018-08-03T13:25:52.038Z,2.80
2018-08-03T13:28:21.435Z,3.80
2018-08-03T13:30:50.934Z,2.60
2018-08-03T13:33:20.456Z,2.97
2018-08-03T13:35:49.753Z,2.70
2018-08-03T13:38:19.542Z,2.83
2018-08-03T13:40:49.694Z,2.87
2018-08-03T13:43:19.037Z,3.60
2018-08-03T13:45:50.342Z,3.02
2018-08-03T13:48:19.702Z,3.90
2018-08-03T13:50:49.134Z,3.58
2018-08-03T13:53:18.585Z,3.75
2018-08-03T13:55:48.009Z,3.90
2018-08-03T13:58:17.391Z,4.67
2018-08-03T14:00:47.919Z,4.50
2018-08-03T14:03:17.416Z,4.20
2018-08-03T14:05:46.765Z,4.40
2018-08-03T14:08:16.157Z,4.30
2018-08-03T14:10:45.578Z,4.60
2018-08-03T14:13:15.815Z,4.43
2018-08-03T14:15:45.186Z,4.47
2018-08-03T14:18:14.638Z,4.50
2018-08-03T14:20:44.252Z,4.57
2018-08-03T14:23:13.628Z,3.60
2018-08-03T14:25:43.300Z,4.43
2018-08-03T14:28:13.029Z,4.73
2018-08-03T14:30:43.813Z,4.57
2018-08-03T14:33:13.574Z,4.13
2018-08-03T14:35:43.022Z,4.30
2018-08-03T14:38:12.470Z,5.00
2018-08-03T14:40:42.442Z,5.77
2018-08-03T14:43:11.838Z,5.43
2018-08-03T14:45:41.221Z,4.83
2018-08-03T14:48:10.676Z,5.03
2018-08-03T14:50:40.460Z,4.90
2018-08-03T14:53:09.986Z,5.50
2018-08-03T14:55:39.602Z,5.10
2018-08-03T14:58:08.960Z,5.63
2018-08-03T15:00:38.413Z,5.07
2018-08-03T15:03:07.787Z,4.57
2018-08-03T15:05:37.238Z,4.47
2018-08-03T15:08:07.330Z,4.60
2018-08-03T15:10:36.757Z,4.80
2018-08-03T15:13:06.177Z,5.10
2018-08-03T15:15:35.669Z,4.90
2018-08-03T15:18:05.168Z,5.43
2018-08-03T15:20:34.630Z,4.70
2018-08-03T15:23:03.995Z,4.50
2018-08-03T15:25:33.358Z,4.80
2018-08-03T15:28:04.073Z,4.70
2018-08-03T15:30:33.593Z,4.57
2018-08-03T15:33:03.500Z,4.30
2018-08-03T15:35:32.921Z,5.00
2018-08-03T15:38:02.329Z,5.07
2018-08-03T15:40:31.661Z,4.27
2018-08-03T15:43:01.157Z,5.13
2018-08-03T15:45:30.642Z,4.03
2018-08-03T15:48:00.031Z,4.30
2018-08-03T15:50:29.389Z,4.70
2018-08-03T15:52:59.081Z,5.50
2018-08-03T15:55:29.231Z,4.80
2018-08-03T15:57:58.746Z,4.80
2018-08-03T16:00:28.149Z,3.53
2018-08-03T16:02:57.762Z,4.60
2018-08-03T16:05:27.207Z,4.23
2018-08-03T16:07:56.571Z,3.70
2018-08-03T16:10:25.949Z,3.97
2018-08-03T16:12:55.369Z,4.10
2018-08-03T16:15:24.702Z,4.40
2018-08-03T16:17:54.102Z,3.80
2018-08-03T16:20:23.462Z,4.50
2018-08-03T16:22:53.066Z,3.70
2018-08-03T16:25:22.479Z,4.13
2018-08-03T16:27:52.118Z,4.10
2018-08-03T16:30:21.737Z,4.07
2018-08-03T16:32:51.130Z,4.77
2018-08-03T16:35:20.577Z,4.20
2018-08-03T16:37:50.174Z,3.87
2018-08-03T16:40:19.730Z,4.43
2018-08-03T16:42:49.219Z,4.40
2018-08-03T16:45:18.729Z,3.67
2018-08-03T16:47:48.192Z,3.90
2018-08-03T16:50:17.557Z,3.77
2018-08-03T16:52:47.013Z,3.90
2018-08-03T16:55:16.402Z,3.87
2018-08-03T16:57:45.812Z,3.77
2018-08-03T17:00:17.902Z,4.30
2018-08-03T17:02:47.909Z,3.67
2018-08-03T17:05:17.272Z,3.40
2018-08-03T17:07:46.703Z,3.53
2018-08-03T17:10:16.090Z,3.17
2018-08-03T17:12:45.517Z,3.73
2018-08-03T17:15:14.887Z,3.63
2018-08-03T17:17:44.285Z,3.30
2018-08-03T17:20:13.732Z,3.30
2018-08-03T17:22:43.116Z,3.20
2018-08-03T17:25:13.117Z,2.90
2018-08-03T17:27:42.699Z,2.93
2018-08-03T17:30:12.170Z,3.23
2018-08-03T17:32:41.591Z,3.97
2018-08-03T17:35:10.893Z,3.80
2018-08-03T17:37:41.277Z,3.47
2018-08-03T17:40:10.657Z,3.07
2018-08-03T17:42:40.135Z,3.00
2018-08-03T17:45:09.945Z,2.90
2018-08-03T17:47:39.304Z,3.03
2018-08-03T17:50:08.741Z,3.03
2018-08-03T17:52:37.869Z,3.20
2018-08-03T17:55:07.334Z,2.77
2018-08-03T17:57:36.691Z,2.60
2018-08-03T18:00:06.650Z,3.00
2018-08-03T18:02:36.037Z,2.67
2018-08-03T18:05:05.583Z,2.47
2018-08-03T18:07:35.055Z,2.43
2018-08-03T18:10:04.479Z,2.77
2018-08-03T18:12:33.862Z,2.90
2018-08-03T18:15:03.426Z,2.30
2018-08-03T18:17:32.885Z,2.70
2018-08-03T18:20:02.898Z,2.47
2018-08-03T18:22:32.305Z,2.73
2018-08-03T18:25:01.827Z,2.83
2018-08-03T18:27:31.209Z,3.50
2018-08-03T18:30:00.622Z,2.10
2018-08-03T18:32:30.131Z,2.43
2018-08-03T18:34:59.554Z,2.50
2018-08-03T18:37:29.006Z,2.50
2018-08-03T18:39:58.450Z,2.20
2018-08-03T18:42:27.784Z,2.60
2018-08-03T18:44:57.276Z,3.47
2018-08-03T18:47:26.831Z,3.00
2018-08-03T18:49:56.242Z,3.20
2018-08-03T18:52:25.681Z,2.40
2018-08-03T18:54:55.320Z,2.80
2018-08-03T18:57:25.248Z,2.37
2018-08-03T18:59:54.626Z,2.53
2018-08-03T19:02:24.209Z,2.40
2018-08-03T19:04:53.605Z,2.40
2018-08-03T19:07:23.113Z,2.40
2018-08-03T19:09:52.496Z,2.83
2018-08-03T19:12:21.949Z,2.57
2018-08-03T19:14:51.535Z,2.60
2018-08-03T19:17:21.049Z,2.33
2018-08-03T19:19:50.418Z,3.00
2018-08-03T19:22:19.789Z,2.47
2018-08-03T19:24:49.225Z,1.90
2018-08-03T19:27:18.660Z,2.70
2018-08-03T19:29:48.185Z,2.00
2018-08-03T19:32:17.658Z,2.00
2018-08-03T19:34:47.048Z,2.27
2018-08-03T19:37:16.512Z,1.70
2018-08-03T19:39:45.960Z,1.73
2018-08-03T19:42:15.398Z,1.90
2018-08-03T19:44:44.820Z,2.30
2018-08-03T19:47:14.355Z,1.80
2018-08-03T19:49:43.690Z,1.53
2018-08-03T19:52:13.081Z,1.90
2018-08-03T19:54:42.481Z,1.83
2018-08-03T19:57:11.933Z,1.70
2018-08-03T19:59:41.199Z,2.10
2018-08-03T20:02:10.850Z,2.63
2018-08-03T20:04:40.201Z,3.90
2018-08-03T20:07:10.350Z,1.90
2018-08-03T20:09:39.770Z,1.80
2018-08-03T20:12:09.218Z,1.93
2018-08-03T20:14:38.645Z,2.13
2018-08-03T20:17:08.275Z,2.00
2018-08-03T20:19:37.950Z,2.00
2018-08-03T20:22:12.420Z,2.47
2018-08-03T20:24:42.069Z,1.90
2018-08-03T20:27:11.529Z,3.33
2018-08-03T20:29:41.329Z,2.17
2018-08-03T20:32:10.719Z,1.90
2018-08-03T20:34:40.145Z,2.03
2018-08-03T20:37:09.529Z,2.07
2018-08-03T20:39:39.013Z,1.73
2018-08-03T20:42:08.391Z,1.90
2018-08-03T20:44:37.846Z,2.20
2018-08-03T20:47:07.295Z,1.57
2018-08-03T20:49:36.851Z,1.57
2018-08-03T20:52:06.290Z,1.33
2018-08-03T20:54:35.376Z,1.40
2018-08-03T20:57:04.858Z,1.10
2018-08-03T20:59:34.497Z,1.53
2018-08-03T21:02:03.903Z,1.23
2018-08-03T21:04:33.266Z,2.13
2018-08-03T21:07:02.722Z,1.60
2018-08-03T21:09:31.905Z,1.33
2018-08-03T21:12:01.321Z,1.30
2018-08-03T21:14:30.925Z,1.30
2018-08-03T21:17:00.293Z,1.40
2018-08-03T21:19:29.766Z,1.30
2018-08-03T21:21:59.445Z,1.60
2018-08-03T21:24:28.922Z,1.40
2018-08-03T21:26:58.301Z,1.30
2018-08-03T21:29:27.758Z,1.30
2018-08-03T21:31:57.085Z,1.17
2018-08-03T21:34:26.543Z,1.20
2018-08-03T21:36:55.942Z,1.50
2018-08-03T21:39:25.317Z,1.17
2018-08-03T21:41:54.485Z,1.23
2018-08-03T21:44:23.933Z,1.63
2018-08-03T21:46:53.369Z,1.10
2018-08-03T21:49:22.767Z,1.50
2018-08-03T21:51:52.171Z,1.17
2018-08-03T21:54:21.564Z,1.53
2018-08-03T21:56:52.304Z,1.20
2018-08-03T21:59:21.723Z,1.30
2018-08-03T22:01:50.202Z,1.20
2018-08-03T22:04:19.737Z,1.70
2018-08-03T22:06:49.160Z,1.43
2018-08-03T22:09:18.594Z,1.00
2018-08-03T22:11:47.966Z,1.30
2018-08-03T22:14:17.314Z,1.30
2018-08-03T22:16:46.733Z,1.60
2018-08-03T22:19:16.250Z,1.60
2018-08-03T22:21:45.707Z,1.70
2018-08-03T22:24:15.152Z,1.20
2018-08-03T22:26:44.545Z,1.50
2018-08-03T22:29:13.959Z,1.80
2018-08-03T22:31:44.377Z,1.43
2018-08-03T22:34:13.714Z,1.53
2018-08-03T22:36:43.218Z,1.20
2018-08-03T22:39:12.673Z,1.37
2018-08-03T22:41:42.122Z,1.50
2018-08-03T22:44:11.594Z,1.30
2018-08-03T22:46:41.123Z,1.10
2018-08-03T22:49:10.481Z,1.40
2018-08-03T22:51:39.905Z,1.80
2018-08-03T22:54:09.327Z,1.23
2018-08-03T22:56:39.877Z,1.00
2018-08-03T22:59:09.059Z,1.63
2018-08-03T23:01:38.482Z,1.90
2018-08-03T23:04:07.709Z,1.00
2018-08-03T23:06:38.567Z,1.20
2018-08-03T23:09:09.161Z,1.30
2018-08-03T23:11:38.771Z,1.27
2018-08-03T23:14:08.161Z,1.00
2018-08-03T23:16:37.437Z,1.90
2018-08-03T23:19:06.943Z,1.50
2018-08-03T23:21:36.382Z,1.30
2018-08-03T23:24:05.729Z,1.00
2018-08-03T23:26:35.081Z,1.40
2018-08-03T23:29:04.465Z,1.50
2018-08-03T23:31:33.947Z,1.97
2018-08-03T23:34:03.365Z,1.40
2018-08-03T23:36:32.869Z,1.50
2018-08-03T23:39:02.223Z,1.50
2018-08-03T23:41:31.653Z,1.30
2018-08-03T23:44:01.085Z,1.40
2018-08-03T23:46:30.457Z,1.10
2018-08-03T23:48:59.840Z,1.30
2018-08-03T23:51:30.122Z,1.43
2018-08-03T23:53:59.508Z,1.40
2018-08-03T23:56:29.037Z,1.53
2018-08-03T23:58:58.416Z,1.40
